Time;durP1;ratioP1;P1;durP2;ratioP2;P2;SDS_P1;SDS_P2;PMS_P1;PMS_P2;Temp;Humidity;BMP_temperature;BMP_pressure;BME280_temperature;BME280_humidity;BME280_pressure;Samples;Min_cycle;Max_cycle;Signal;HPM_P1;HPM_P2
2021/07/02 00:00:38;;;;;;;12.30;6.43;;;;;;;13.92;95.55;100948.59;4969594;28;20043;-71
2021/07/02 00:03:04;;;;;;;13.57;8.83;;;;;;;13.92;95.89;100961.19;4952500;28;20039;-72
2021/07/02 00:05:29;;;;;;;19.17;6.80;;;;;;;13.91;95.90;100963.03;4969592;28;20030;-71
2021/07/02 00:07:54;;;;;;;11.40;6.80;;;;;;;13.92;96.01;100961.19;4969234;28;20459;-71
2021/07/02 00:10:20;;;;;;;12.83;7.07;;;;;;;13.95;95.68;100952.75;4970866;28;20066;-72
2021/07/02 00:12:45;;;;;;;11.00;6.57;;;;;;;13.92;95.57;100956.63;4973037;28;20031;-72
2021/07/02 00:15:12;;;;;;;12.90;7.60;;;;;;;13.94;96.46;100948.41;4972105;28;20038;-71
2021/07/02 00:17:37;;;;;;;19.13;8.93;;;;;;;13.94;96.70;100954.59;4972603;28;20027;-71
2021/07/02 00:20:03;;;;;;;15.70;8.73;;;;;;;13.92;96.70;100953.13;4971923;28;20530;-72
2021/07/02 00:22:29;;;;;;;16.08;8.68;;;;;;;13.92;96.90;100948.59;4971863;28;20030;-72
2021/07/02 00:24:54;;;;;;;10.37;6.93;;;;;;;13.91;96.67;100940.72;4971967;28;20357;-71
2021/07/02 00:27:20;;;;;;;14.77;8.77;;;;;;;13.93;96.90;100942.22;4972489;28;20045;-71
2021/07/02 00:29:45;;;;;;;17.10;7.57;;;;;;;13.93;97.17;100955.63;4971854;28;20074;-72
2021/07/02 00:32:11;;;;;;;13.57;8.23;;;;;;;13.88;96.89;100952.66;4972588;28;20104;-71
2021/07/02 00:34:37;;;;;;;;;;;;;;;13.87;97.29;100956.34;4973079;28;20483;-71
2021/07/02 00:37:02;;;;;;;;;;;;;;;13.87;97.10;100956.34;4971705;28;19920;-71
2021/07/02 00:39:28;;;;;;;11.30;7.30;;;;;;;13.84;97.39;100956.72;4971599;28;19997;-71
2021/07/02 00:41:53;;;;;;;12.87;7.63;;;;;;;13.76;97.35;100959.44;4971423;28;20042;-71
2021/07/02 00:44:45;;;;;;;13.67;7.43;;;;;;;13.70;97.34;100958.31;4971654;28;20066;-71
2021/07/02 00:47:12;;;;;;;14.68;7.35;;;;;;;13.65;97.22;100952.66;4971289;28;20057;-71
2021/07/02 00:49:39;;;;;;;13.60;7.72;;;;;;;13.64;96.75;100961.69;4971488;28;20031;-71
2021/07/02 00:52:06;;;;;;;16.83;7.22;;;;;;;13.62;97.10;100960.19;4971411;28;20039;-71
2021/07/02 00:54:36;;;;;;;14.20;8.95;;;;;;;13.64;97.14;100958.19;4971481;28;20391;-71
2021/07/02 00:57:04;;;;;;;14.18;7.97;;;;;;;13.60;96.83;100964.91;4971116;28;20051;-71
2021/07/02 00:59:30;;;;;;;13.27;7.00;;;;;;;13.58;96.95;100957.06;4971333;28;20039;-71
2021/07/02 01:01:56;;;;;;;17.10;7.47;;;;;;;13.60;97.22;100959.53;4972362;28;20456;-71
2021/07/02 01:04:23;;;;;;;12.02;7.82;;;;;;;13.59;97.07;100963.25;4972239;28;20066;-71
2021/07/02 01:06:51;;;;;;;13.20;7.18;;;;;;;13.54;97.00;100963.78;4971856;28;20049;-71
2021/07/02 01:09:18;;;;;;;19.90;8.80;;;;;;;13.57;97.32;100962.59;4971211;28;20045;-71
2021/07/02 01:11:44;;;;;;;13.27;8.25;;;;;;;13.58;97.75;100957.06;4971103;28;20096;-71
2021/07/02 01:14:10;;;;;;;12.05;8.32;;;;;;;13.61;97.72;100953.19;4971082;28;20126;-71
2021/07/02 01:16:40;;;;;;;17.88;7.68;;;;;;;13.55;97.51;100946.66;4970804;28;20129;-71
2021/07/02 01:19:06;;;;;;;20.27;7.82;;;;;;;13.55;97.63;100952.03;4970901;28;20478;-71
2021/07/02 01:21:32;;;;;;;20.00;11.02;;;;;;;13.60;97.91;100951.50;4970133;28;20030;-71
2021/07/02 01:23:58;;;;;;;12.77;8.20;;;;;;;13.56;97.85;100947.50;4971260;28;20043;-71
2021/07/02 01:26:24;;;;;;;20.17;9.30;;;;;;;13.57;97.93;100959.91;4971660;28;20042;-71
2021/07/02 01:28:50;;;;;;;18.95;9.02;;;;;;;13.58;98.09;100956.19;4971865;28;20273;-71
2021/07/02 01:31:18;;;;;;;14.55;8.70;;;;;;;13.58;97.98;100954.38;4970869;28;20060;-71
2021/07/02 01:33:44;;;;;;;23.07;9.60;;;;;;;13.53;98.32;100946.00;4970896;28;20472;-71
2021/07/02 01:36:16;;;;;;;16.10;9.67;;;;;;;13.57;98.05;100952.69;4970514;28;20035;-71
2021/07/02 01:38:43;;;;;;;18.95;9.05;;;;;;;13.67;99.27;100952.44;4970672;28;20057;-71
2021/07/02 01:41:09;;;;;;;20.73;9.85;;;;;;;13.59;98.36;100960.56;4954716;28;20161;-71
2021/07/02 01:43:36;;;;;;;19.00;7.68;;;;;;;13.50;97.92;100971.31;4954825;28;20035;-71
2021/07/02 01:46:02;;;;;;;14.35;8.18;;;;;;;13.58;98.85;100967.78;4970348;28;20453;-72
2021/07/02 01:48:29;;;;;;;18.83;10.23;;;;;;;13.52;98.43;100972.00;4970561;28;20039;-71
2021/07/02 01:50:56;;;;;;;15.68;7.10;;;;;;;13.45;97.83;100967.50;4954643;28;20538;-71
2021/07/02 01:53:22;;;;;;;;;;;;;;;13.41;98.21;100969.69;4971809;28;20547;-71
2021/07/02 01:55:49;;;;;;;13.57;8.02;;;;;;;13.39;97.78;100965.53;4971445;28;19956;-71
2021/07/02 01:58:14;;;;;;;13.15;8.07;;;;;;;13.33;97.89;100968.94;4970402;28;20046;-71
2021/07/02 02:00:51;;;;;;;11.95;7.80;;;;;;;13.28;97.98;100969.44;4970528;28;20070;-71
2021/07/02 02:03:20;;;;;;;15.73;8.23;;;;;;;13.25;97.93;100964.38;4970402;28;20030;-71
2021/07/02 02:05:48;;;;;;;12.55;7.80;;;;;;;13.23;97.73;100961.91;4971156;28;20118;-71
2021/07/02 02:08:13;;;;;;;15.85;8.23;;;;;;;13.23;97.73;100963.75;4954154;28;20031;-71
2021/07/02 02:10:42;;;;;;;14.82;8.50;;;;;;;13.20;97.39;100958.72;4970338;28;20045;-71
2021/07/02 02:13:07;;;;;;;12.07;7.85;;;;;;;13.17;97.17;100961.75;4970229;28;20039;-71
2021/07/02 02:15:33;;;;;;;13.73;7.70;;;;;;;13.18;97.08;100955.38;4954075;28;20387;-71
2021/07/02 02:18:01;;;;;;;14.38;7.68;;;;;;;13.16;97.27;100946.66;4969813;28;20103;-71
2021/07/02 02:20:27;;;;;;;13.57;8.38;;;;;;;13.14;97.09;100959.44;4969892;28;20385;-71
2021/07/02 02:22:53;;;;;;;14.65;9.07;;;;;;;13.13;97.22;100957.75;4970119;28;20038;-72
2021/07/02 02:25:19;;;;;;;19.80;10.52;;;;;;;13.06;97.05;100969.19;4954036;28;20078;-72
2021/07/02 02:27:48;;;;;;;15.85;8.80;;;;;;;13.06;97.53;100963.81;4953931;28;20104;-71
2021/07/02 02:30:13;;;;;;;15.13;9.25;;;;;;;13.07;97.57;100970.84;4970899;28;20037;-71
2021/07/02 02:32:40;;;;;;;23.35;10.98;;;;;;;13.07;97.81;100970.00;4953843;28;20079;-71
2021/07/02 02:35:08;;;;;;;22.77;10.63;;;;;;;13.06;98.10;100960.28;4953837;28;20054;-71
2021/07/02 02:37:33;;;;;;;20.02;8.95;;;;;;;13.06;98.16;100969.19;4953471;28;20035;-71
2021/07/02 02:40:01;;;;;;;20.67;8.88;;;;;;;13.06;97.87;100971.00;4969841;28;20092;-71
2021/07/02 02:42:28;;;;;;;14.00;7.47;;;;;;;12.99;97.68;100959.31;4953684;28;20054;-71
2021/07/02 02:44:53;;;;;;;15.70;8.73;;;;;;;13.00;97.69;100972.53;4970715;28;20038;-71
2021/07/02 02:47:18;;;;;;;15.73;9.73;;;;;;;13.06;98.42;100979.03;4969251;28;20126;-71
2021/07/02 02:49:44;;;;;;;12.27;7.80;;;;;;;13.04;97.81;100981.06;4953569;28;20027;-71
2021/07/02 02:52:11;;;;;;;19.95;9.25;;;;;;;13.07;98.09;100984.25;4953654;28;20031;-71
2021/07/02 02:54:36;;;;;;;28.03;10.93;;;;;;;13.14;99.04;100980.88;4969644;28;20050;-71
2021/07/02 02:57:05;;;;;;;13.33;9.40;;;;;;;13.15;99.17;100980.69;4969299;28;20525;-71
2021/07/02 02:59:37;;;;;;;19.00;9.45;;;;;;;13.20;99.60;100985.53;4953998;28;20117;-71
2021/07/02 03:02:04;;;;;;;18.42;10.38;;;;;;;13.14;99.07;100986.25;4953436;28;20156;-71
2021/07/02 03:04:34;;;;;;;22.17;11.38;;;;;;;13.26;99.80;100983.00;4953581;28;20031;-71
2021/07/02 03:07:06;;;;;;;20.30;10.02;;;;;;;13.42;99.41;100978.59;4953375;28;20104;-71
2021/07/02 03:09:33;;;;;;;22.75;11.57;;;;;;;13.48;99.59;100980.56;4969354;28;20106;-71
2021/07/02 03:12:00;;;;;;;20.75;11.82;;;;;;;13.47;99.48;100990.47;4969295;28;20034;-71
2021/07/02 03:14:27;;;;;;;22.83;11.55;;;;;;;13.47;99.52;100989.63;4969155;28;20030;-71
2021/07/02 03:16:52;;;;;;;21.13;11.03;;;;;;;13.52;99.56;100996.13;4969886;28;20049;-72
2021/07/02 03:19:19;;;;;;;;;;;;;;;13.59;99.72;101000.81;4969465;28;20026;-71
2021/07/02 03:21:46;;;;;;;22.23;13.25;;;;;;;13.74;100.00;101001.72;4969152;28;19979;-71
2021/07/02 03:24:12;;;;;;;28.60;15.15;;;;;;;13.94;100.00;101000.25;4969072;28;20043;-71
2021/07/02 03:26:38;;;;;;;30.33;15.18;;;;;;;14.06;100.00;101005.19;4969810;28;20045;-71
2021/07/02 03:29:04;;;;;;;29.75;14.82;;;;;;;14.09;100.00;100994.09;4969841;28;20361;-71
2021/07/02 03:31:30;;;;;;;35.35;15.32;;;;;;;14.20;100.00;101004.41;4968906;28;20039;-71
2021/07/02 03:33:56;;;;;;;30.93;16.07;;;;;;;14.23;100.00;101003.22;4969062;28;20050;-71
2021/07/02 03:36:21;;;;;;;31.70;14.38;;;;;;;14.19;100.00;100997.38;4968725;28;20085;-71
2021/07/02 03:38:48;;;;;;;36.15;16.38;;;;;;;14.23;100.00;100998.69;4953147;28;20066;-71
2021/07/02 03:41:14;;;;;;;30.33;16.63;;;;;;;14.25;100.00;101001.19;4969870;28;20417;-72
2021/07/02 03:43:39;;;;;;;28.52;15.75;;;;;;;14.29;100.00;100997.97;4968371;28;20038;-71
2021/07/02 03:46:06;;;;;;;36.83;16.88;;;;;;;14.30;100.00;100998.78;4968462;28;20121;-72
2021/07/02 03:48:32;;;;;;;36.43;17.23;;;;;;;14.36;100.00;101006.97;4968843;28;20123;-72
2021/07/02 03:50:57;;;;;;;34.30;16.30;;;;;;;14.38;100.00;101011.34;4969817;28;20054;-72
2021/07/02 03:53:22;;;;;;;29.33;15.67;;;;;;;14.43;100.00;101014.31;4969709;28;20042;-72
2021/07/02 03:55:48;;;;;;;26.77;14.17;;;;;;;14.50;100.00;101016.09;4969688;28;20038;-72
2021/07/02 03:58:13;;;;;;;32.55;14.98;;;;;;;14.54;100.00;101021.97;4952335;28;20129;-72
2021/07/02 04:00:39;;;;;;;37.17;17.07;;;;;;;14.54;100.00;101025.50;4969561;28;20053;-72
2021/07/02 04:03:05;;;;;;;39.05;16.88;;;;;;;14.59;100.00;101026.81;4969631;28;20051;-72
2021/07/02 04:05:30;;;;;;;34.28;15.90;;;;;;;14.67;100.00;101032.09;4969598;28;20034;-72
2021/07/02 04:07:56;;;;;;;43.10;20.60;;;;;;;14.70;100.00;101034.41;4968365;28;20043;-72
2021/07/02 04:10:21;;;;;;;47.37;21.77;;;;;;;14.70;100.00;101027.19;4969630;28;20096;-71
2021/07/02 04:12:46;;;;;;;62.83;24.73;;;;;;;14.77;100.00;101033.50;4968463;28;20043;-72
2021/07/02 04:15:12;;;;;;;48.37;26.33;;;;;;;14.77;100.00;101038.88;4968538;28;20047;-72
2021/07/02 04:17:38;;;;;;;47.67;22.87;;;;;;;14.84;100.00;101030.06;4968240;28;20042;-72
2021/07/02 04:20:09;;;;;;;57.75;25.95;;;;;;;14.92;100.00;101038.06;4969488;28;20043;-72
2021/07/02 04:22:38;;;;;;;56.90;27.98;;;;;;;14.91;100.00;101028.31;4969351;28;20034;-72
2021/07/02 04:25:08;;;;;;;49.67;26.02;;;;;;;15.01;100.00;101036.97;4968433;28;20039;-72
2021/07/02 04:27:34;;;;;;;58.05;27.13;;;;;;;15.08;100.00;101029.81;4969031;28;20043;-72
2021/07/02 04:30:01;;;;;;;54.10;26.45;;;;;;;15.03;99.69;101016.09;4952262;28;20042;-72
2021/07/02 04:32:26;;;;;;;49.00;24.23;;;;;;;14.97;98.46;101025.72;4952319;28;20039;-72
2021/07/02 04:34:52;;;;;;;58.13;26.87;;;;;;;15.01;99.12;101023.53;4968466;28;20486;-72
2021/07/02 04:37:17;;;;;;;60.50;28.97;;;;;;;15.10;99.01;101027.78;4967971;28;20039;-72
2021/07/02 04:39:42;;;;;;;57.73;27.00;;;;;;;15.01;98.57;101028.03;4968240;28;20376;-72
2021/07/02 04:42:08;;;;;;;58.43;28.63;;;;;;;14.98;98.47;101035.47;4968110;28;20490;-72
2021/07/02 04:44:35;;;;;;;63.23;28.50;;;;;;;15.00;98.16;101027.22;4952182;28;20504;-72
2021/07/02 04:47:01;;;;;;;57.90;29.10;;;;;;;15.13;97.90;101034.66;4968873;28;20046;-72
2021/07/02 04:49:26;;;;;;;49.97;25.20;;;;;;;15.20;97.37;101036.41;4969189;28;20093;-72
2021/07/02 04:51:52;;;;;;;49.90;24.13;;;;;;;15.28;96.62;101040.00;4968172;28;20039;-72
2021/07/02 04:54:17;;;;;;;55.60;25.30;;;;;;;15.35;96.25;101035.56;4967983;28;20043;-72
2021/07/02 04:56:49;;;;;;;48.03;24.57;;;;;;;15.29;94.81;101038.97;4970010;28;20034;-72
2021/07/02 04:59:15;;;;;;;49.53;21.23;;;;;;;15.28;94.57;101038.16;4972226;28;20112;-72
2021/07/02 05:01:41;;;;;;;54.25;23.02;;;;;;;15.31;95.25;101039.63;4955380;28;20070;-72
2021/07/02 05:04:07;;;;;;;48.73;23.57;;;;;;;15.43;95.57;101043.53;4972321;28;20468;-72
2021/07/02 05:06:35;;;;;;;47.55;21.85;;;;;;;15.45;94.18;101044.16;4971881;28;20479;-71
2021/07/02 05:09:02;;;;;;;41.50;21.00;;;;;;;15.49;94.23;101048.16;4972033;28;20046;-72
2021/07/02 05:11:27;;;;;;;38.00;19.38;;;;;;;15.47;92.92;101034.06;4971158;28;20034;-72
2021/07/02 05:13:53;;;;;;;40.47;19.70;;;;;;;15.61;93.04;101041.25;4955111;28;20502;-72
2021/07/02 05:16:18;;;;;;;35.67;18.73;;;;;;;15.60;92.82;101042.28;4970972;28;20030;-72
2021/07/02 05:18:43;;;;;;;36.50;20.50;;;;;;;15.72;93.17;101041.84;4972120;28;20136;-72
2021/07/02 05:21:08;;;;;;;40.47;22.57;;;;;;;15.63;93.76;101043.78;4971045;28;20431;-72
2021/07/02 05:23:34;;;;;;;37.07;21.33;;;;;;;15.77;93.51;101045.63;4971970;28;20683;-72
2021/07/02 05:26:00;;;;;;;40.67;23.77;;;;;;;15.87;93.65;101048.00;4970737;28;20444;-72
2021/07/02 05:28:26;;;;;;;36.25;21.50;;;;;;;15.89;92.38;101047.84;4971890;28;20100;-72
2021/07/02 05:30:51;;;;;;;35.40;21.97;;;;;;;15.79;90.66;101037.38;4971890;28;20039;-72
2021/07/02 05:33:16;;;;;;;42.33;26.27;;;;;;;15.73;90.98;101043.50;4954691;28;20031;-72
2021/07/02 05:35:42;;;;;;;39.40;26.37;;;;;;;15.81;91.98;101048.78;4970913;28;20341;-72
2021/07/02 05:38:07;;;;;;;53.93;28.83;;;;;;;15.78;91.35;101050.00;4971538;28;20623;-72
2021/07/02 05:40:33;;;;;;;46.33;28.27;;;;;;;15.93;91.00;101052.66;4970643;28;20723;-72
2021/07/02 05:42:58;;;;;;;42.40;24.63;;;;;;;15.85;89.60;101047.41;4971646;28;20091;-72
2021/07/02 05:45:23;;;;;;;38.10;24.87;;;;;;;15.80;89.44;101057.88;4970722;28;20034;-72
2021/07/02 05:47:50;;;;;;;31.90;20.63;;;;;;;15.77;88.64;101055.56;4954377;28;20039;-72
2021/07/02 05:50:16;;;;;;;;;;;;;;;15.83;88.41;101054.81;4972029;28;20038;-72
2021/07/02 05:52:41;;;;;;;28.55;17.65;;;;;;;15.87;88.67;101063.34;4971495;28;20312;-72
2021/07/02 05:55:07;;;;;;;29.87;18.70;;;;;;;15.99;88.68;101056.44;4970558;28;20031;-72
2021/07/02 05:57:33;;;;;;;26.25;16.27;;;;;;;16.11;88.42;101067.53;4971210;28;20476;-72
2021/07/02 05:59:58;;;;;;;31.13;15.63;;;;;;;16.15;88.72;101068.81;4971352;28;20057;-71
2021/07/02 06:02:23;;;;;;;22.27;12.90;;;;;;;16.15;87.78;101071.53;4971425;28;20169;-72
2021/07/02 06:04:49;;;;;;;31.07;14.77;;;;;;;16.23;87.97;101074.09;4969666;28;20096;-72
2021/07/02 06:07:14;;;;;;;25.43;12.43;;;;;;;16.42;86.93;101067.25;4970340;28;20031;-72
2021/07/02 06:09:40;;;;;;;21.77;12.07;;;;;;;16.30;86.32;101072.31;4970156;28;20452;-72
2021/07/02 06:12:05;;;;;;;27.37;12.80;;;;;;;16.30;86.37;101060.72;4970387;28;20116;-72
2021/07/02 06:14:31;;;;;;;19.60;12.47;;;;;;;16.41;86.48;101069.09;4970304;28;20591;-72
2021/07/02 06:16:57;;;;;;;27.90;12.40;;;;;;;16.41;85.86;101063.72;4970019;28;20301;-72
2021/07/02 06:19:22;;;;;;;20.95;13.57;;;;;;;16.30;86.87;101071.47;4970213;28;20049;-72
2021/07/02 06:21:48;;;;;;;21.87;12.47;;;;;;;16.38;86.99;101074.84;4970972;28;20039;-72
2021/07/02 06:24:13;;;;;;;19.73;13.20;;;;;;;16.43;86.82;101072.41;4953963;28;20166;-72
2021/07/02 06:26:38;;;;;;;26.47;13.97;;;;;;;16.32;86.32;101072.97;4969824;28;20042;-72
2021/07/02 06:29:04;;;;;;;24.33;12.83;;;;;;;16.33;85.83;101079.16;4970011;28;20043;-72
2021/07/02 06:31:29;;;;;;;18.70;12.03;;;;;;;16.26;85.89;101076.41;4971085;28;20080;-72
2021/07/02 06:33:54;;;;;;;26.10;14.27;;;;;;;16.22;86.00;101081.38;4970093;28;20358;-72
2021/07/02 06:36:20;;;;;;;27.07;13.87;;;;;;;16.19;85.49;101084.41;4969652;28;20046;-72
2021/07/02 06:38:45;;;;;;;26.03;12.20;;;;;;;16.24;86.26;101089.22;4970774;28;20053;-71
2021/07/02 06:41:10;;;;;;;16.23;11.37;;;;;;;16.25;85.70;101086.34;4970621;28;20045;-72
2021/07/02 06:43:36;;;;;;;25.30;12.83;;;;;;;16.44;86.10;101079.50;4969876;28;20349;-72
2021/07/02 06:46:01;;;;;;;23.43;12.00;;;;;;;16.46;85.27;101088.22;4970592;28;20221;-74
2021/07/02 06:48:26;;;;;;;24.43;12.73;;;;;;;16.44;84.54;101084.06;4970751;28;20096;-76
2021/07/02 06:50:55;;;;;;;22.63;11.83;;;;;;;16.54;84.37;101091.81;4970698;28;20463;-75
2021/07/02 06:53:21;;;;;;;17.73;10.98;;;;;;;16.57;83.53;101091.41;4970519;28;20411;-75
2021/07/02 06:55:46;;;;;;;21.90;10.57;;;;;;;16.59;83.00;101087.50;4970515;28;20047;-75
2021/07/02 06:58:12;;;;;;;20.83;11.83;;;;;;;16.63;82.17;101087.94;4969533;28;20100;-75
2021/07/02 07:00:38;;;;;;;21.27;11.60;;;;;;;16.70;81.93;101094.22;4969649;28;20475;-75
2021/07/02 07:03:04;;;;;;;19.17;12.20;;;;;;;16.68;82.50;101090.91;4970559;28;20425;-74
2021/07/02 07:05:29;;;;;;;24.63;12.97;;;;;;;16.79;82.96;101092.28;4970467;28;20066;-75
2021/07/02 07:07:55;;;;;;;20.07;11.03;;;;;;;16.59;82.04;101082.09;4968891;28;20042;-75
2021/07/02 07:10:20;;;;;;;22.98;11.65;;;;;;;16.71;82.14;101093.19;4970178;28;20508;-74
2021/07/02 07:12:46;;;;;;;25.20;12.17;;;;;;;16.56;82.39;101097.84;4969030;28;20031;-75
2021/07/02 07:15:13;;;;;;;18.77;11.30;;;;;;;16.75;81.65;101099.88;4969071;28;20075;-75
2021/07/02 07:17:39;;;;;;;22.65;10.88;;;;;;;16.78;81.60;101104.88;4968516;28;20038;-75
2021/07/02 07:20:05;;;;;;;17.43;11.47;;;;;;;16.85;81.24;101097.69;4969357;28;20360;-75
2021/07/02 07:22:31;;;;;;;18.83;11.23;;;;;;;17.10;80.37;101094.56;4969330;28;20026;-75
2021/07/02 07:24:57;;;;;;;21.73;11.77;;;;;;;17.03;81.03;101096.38;4966243;28;20043;-75
2021/07/02 07:27:22;;;;;;;25.40;11.80;;;;;;;16.88;80.66;101097.31;4966890;28;20030;-75
2021/07/02 07:29:47;;;;;;;22.53;10.83;;;;;;;17.03;80.48;101088.31;4967318;28;20038;-75
2021/07/02 07:32:13;;;;;;;20.40;11.47;;;;;;;16.93;80.08;101090.47;4966425;28;20085;-75
2021/07/02 07:34:45;;;;;;;16.80;10.30;;;;;;;17.03;79.20;101099.09;4966893;28;20034;-75
2021/07/02 07:37:16;;;;;;;16.92;10.45;;;;;;;16.97;79.84;101099.88;4966820;28;20034;-75
2021/07/02 07:39:41;;;;;;;16.88;9.23;;;;;;;16.91;79.24;101095.28;4969526;28;20065;-74
2021/07/02 07:42:07;;;;;;;15.20;9.37;;;;;;;17.01;77.65;101101.16;4969975;28;20440;-72
2021/07/02 07:44:32;;;;;;;16.63;10.33;;;;;;;16.99;77.92;101103.19;4969157;28;20088;-72
2021/07/02 07:46:58;;;;;;;20.03;8.63;;;;;;;17.33;76.23;101096.19;4968865;28;20042;-75
2021/07/02 07:49:23;;;;;;;17.10;8.47;;;;;;;17.77;74.54;101103.03;4969917;28;20360;-75
2021/07/02 07:54:17;;;;;;;15.52;7.85;;;;;;;18.88;70.73;101098.13;4969828;28;20478;-75
2021/07/02 07:56:51;;;;;;;13.50;7.77;;;;;;;18.58;70.72;101096.84;4969534;28;20114;-75
2021/07/02 07:59:21;;;;;;;13.82;7.80;;;;;;;18.52;72.28;101102.03;4969707;28;20053;-75
2021/07/02 08:01:47;;;;;;;13.80;7.10;;;;;;;18.58;72.72;101096.84;4968909;28;20054;-75
2021/07/02 08:04:14;;;;;;;13.73;7.38;;;;;;;18.55;71.19;101101.63;4969628;28;20031;-75
2021/07/02 08:06:41;;;;;;;13.75;7.82;;;;;;;18.47;73.19;101101.81;4968402;28;20042;-75
2021/07/02 08:09:06;;;;;;;14.65;7.90;;;;;;;18.32;71.92;101104.69;4969640;28;20034;-75
2021/07/02 08:11:31;;;;;;;12.67;8.40;;;;;;;18.16;74.71;101104.25;4969716;28;20057;-75
2021/07/02 08:13:57;;;;;;;18.77;7.63;;;;;;;18.30;71.77;101106.75;4968767;28;20125;-75
2021/07/02 08:16:24;;;;;;;17.27;6.90;;;;;;;18.92;68.51;101112.06;4969458;28;20039;-75
2021/07/02 08:18:49;;;;;;;9.25;5.18;;;;;;;18.85;69.34;101109.38;4969159;28;20100;-75
2021/07/02 08:21:15;;;;;;;15.17;7.63;;;;;;;19.37;68.33;101113.03;4969303;28;20043;-75
2021/07/02 08:23:41;;;;;;;13.47;6.23;;;;;;;19.31;66.97;101122.00;4968450;28;20031;-75
2021/07/02 08:26:07;;;;;;;12.23;6.15;;;;;;;19.75;65.91;101120.44;4967208;28;20039;-73
2021/07/02 08:31:16;;;;;;;10.57;5.18;;;;;;;21.29;63.33;101114.84;4971394;28;20039;-75
2021/07/02 08:33:41;;;;;;;18.63;12.60;;;;;;;21.29;63.37;101115.66;4971847;28;20072;-75
2021/07/02 08:36:07;;;;;;;10.60;4.37;;;;;;;21.46;61.20;101115.94;4971611;28;20042;-75
2021/07/02 08:38:32;;;;;;;8.93;5.33;;;;;;;21.65;60.29;101103.16;4972681;28;20027;-76
2021/07/02 08:40:57;;;;;;;14.93;5.27;;;;;;;21.26;59.37;101112.59;4971722;28;20130;-76
2021/07/02 08:43:23;;;;;;;16.40;5.93;;;;;;;21.58;61.34;101112.47;4972518;28;20411;-76
2021/07/02 08:45:48;;;;;;;14.53;5.13;;;;;;;21.71;60.28;101110.44;4972395;28;20030;-75
2021/07/02 08:48:18;;;;;;;12.25;5.45;;;;;;;21.77;58.91;101114.09;4972455;28;20031;-76
2021/07/02 08:50:43;;;;;;;10.02;4.10;;;;;;;22.51;58.34;101117.50;4972563;28;20121;-76
2021/07/02 08:53:09;;;;;;;13.35;5.28;;;;;;;22.85;55.63;101111.53;4972564;28;20134;-76
2021/07/02 08:55:34;;;;;;;11.90;4.43;;;;;;;22.89;56.63;101105.38;4972531;28;20042;-76
2021/07/02 08:58:00;;;;;;;14.33;5.33;;;;;;;22.68;58.15;101106.78;4972221;28;20053;-76
2021/07/02 09:00:26;;;;;;;6.05;4.00;;;;;;;22.44;55.73;101110.53;4972165;28;20041;-75
2021/07/02 09:02:51;;;;;;;;;;;;;;;23.00;56.12;101117.38;4972737;28;20043;-75
2021/07/02 09:05:34;;;;;;;7.10;4.53;;;;;;;24.01;53.61;101115.22;4971447;28;20316;-76
2021/07/02 09:08:00;;;;;;;6.32;3.80;;;;;;;23.26;51.97;101107.09;4971197;28;20413;-76
2021/07/02 09:10:36;;;;;;;8.63;3.83;;;;;;;22.87;55.17;101112.13;4971326;28;20134;-76
2021/07/02 09:13:02;;;;;;;7.70;4.13;;;;;;;23.80;54.56;101118.63;4972111;28;20054;-76
2021/07/02 09:15:28;;;;;;;10.75;4.70;;;;;;;23.37;53.70;101106.25;4971544;28;20761;-75
2021/07/02 09:17:57;;;;;;;6.13;3.78;;;;;;;24.44;51.55;101111.13;4970834;28;20027;-75
2021/07/02 09:20:25;;;;;;;8.20;4.30;;;;;;;24.31;53.20;101110.59;4971082;28;20042;-75
2021/07/02 09:22:59;;;;;;;9.35;4.47;;;;;;;23.26;52.04;101113.34;4971133;28;20030;-74
2021/07/02 09:25:29;;;;;;;9.10;4.70;;;;;;;23.09;52.95;101120.59;4971050;28;20035;-75
2021/07/02 09:28:02;;;;;;;8.52;4.35;;;;;;;23.38;54.00;101125.06;4970813;28;20379;-76
2021/07/02 09:30:30;;;;;;;8.60;4.18;;;;;;;23.92;50.57;101122.13;4971953;28;20031;-75
2021/07/02 09:33:02;;;;;;;9.38;3.95;;;;;;;24.43;48.01;101127.75;4971008;28;20105;-75
2021/07/02 09:35:54;;;;;;;8.35;3.70;;;;;;;24.64;49.63;101132.50;4954661;28;20034;-75
2021/07/02 09:38:40;;;;;;;11.40;3.97;;;;;;;24.30;49.80;101139.78;4971722;28;20452;-75
2021/07/02 09:41:10;;;;;;;9.20;3.28;;;;;;;24.30;48.17;101144.41;4970691;28;20051;-75
2021/07/02 09:43:38;;;;;;;8.82;4.10;;;;;;;24.71;49.72;101137.81;4969877;28;20073;-73
2021/07/02 09:46:05;;;;;;;7.70;3.55;;;;;;;24.72;48.77;101127.72;4970468;28;20042;-73
2021/07/02 09:48:32;;;;;;;6.32;3.63;;;;;;;24.20;50.03;101139.59;4970710;28;20864;-76
2021/07/02 09:51:05;;;;;;;7.53;3.65;;;;;;;24.80;47.50;101127.31;4971641;28;20337;-75
2021/07/02 09:53:35;;;;;;;10.10;3.78;;;;;;;24.47;50.23;101136.28;4954550;28;20043;-75
2021/07/02 09:56:03;;;;;;;6.35;3.78;;;;;;;24.94;50.18;101127.81;4971316;28;20103;-75
2021/07/02 09:58:34;;;;;;;7.20;3.30;;;;;;;24.79;50.46;101137.38;4970566;28;20175;-73
2021/07/02 10:01:00;;;;;;;7.50;3.33;;;;;;;25.30;46.93;101125.63;4971380;28;20440;-73
2021/07/02 10:03:27;;;;;;;;;;;;;;;25.77;45.69;101127.91;4971859;28;20053;-75
2021/07/02 10:06:03;;;;;;;10.25;3.45;;;;;;;25.26;47.32;101131.63;4971078;28;19918;-75
2021/07/02 10:08:32;;;;;;;7.88;4.07;;;;;;;24.16;49.35;101130.22;4971190;28;20471;-73
2021/07/02 10:11:00;;;;;;;11.07;4.07;;;;;;;23.80;51.08;101129.53;4970287;28;20050;-75
2021/07/02 10:13:29;;;;;;;5.00;3.75;;;;;;;24.30;48.84;101128.84;4970205;28;20468;-75
2021/07/02 10:15:56;;;;;;;8.95;4.18;;;;;;;24.25;49.05;101131.50;4953910;28;20144;-75
2021/07/02 10:18:24;;;;;;;5.22;3.97;;;;;;;25.19;48.91;101130.97;4970100;28;20095;-75
2021/07/02 10:20:49;;;;;;;7.57;4.20;;;;;;;25.15;46.93;101124.31;4970954;28;20043;-75
2021/07/02 10:23:24;;;;;;;7.93;4.00;;;;;;;25.38;47.47;101122.47;4971052;28;20053;-75
2021/07/02 10:25:52;;;;;;;7.80;3.70;;;;;;;24.72;48.01;101131.25;4969957;28;20046;-75
2021/07/02 10:28:18;;;;;;;8.07;4.20;;;;;;;23.37;49.11;101134.31;4969702;28;20483;-76
2021/07/02 10:30:43;;;;;;;7.53;3.17;;;;;;;23.81;50.53;101133.91;4970423;28;20030;-75
2021/07/02 10:33:10;;;;;;;7.27;4.03;;;;;;;24.95;48.72;101137.66;4969572;28;20601;-75
2021/07/02 10:35:36;;;;;;;6.05;3.28;;;;;;;25.17;48.79;101135.81;4969926;28;20870;-75
2021/07/02 10:38:03;;;;;;;10.50;4.25;;;;;;;26.05;47.25;101141.38;4969720;28;20027;-75
2021/07/02 10:40:32;;;;;;;10.95;3.88;;;;;;;25.21;48.01;101134.25;4953692;28;20049;-75
2021/07/02 10:43:23;;;;;;;8.50;3.72;;;;;;;24.81;46.96;101148.88;4970711;28;20434;-76
2021/07/02 10:46:07;;;;;;;4.95;3.30;;;;;;;23.91;51.13;101149.66;4970670;28;20058;-75
2021/07/02 10:48:50;;;;;;;7.78;3.97;;;;;;;23.01;51.20;101149.00;4970664;28;20027;-75
2021/07/02 10:51:40;;;;;;;8.60;3.92;;;;;;;24.23;48.27;101150.00;4969632;28;20089;-75
2021/07/02 10:54:11;;;;;;;6.30;3.15;;;;;;;25.41;47.68;101160.25;4970573;28;20038;-75
2021/07/02 10:56:38;;;;;;;10.38;3.97;;;;;;;25.19;45.96;101152.81;4969458;28;20041;-75
2021/07/02 10:59:03;;;;;;;9.10;4.20;;;;;;;25.12;45.48;101157.56;4969508;28;20450;-75
2021/07/02 11:01:32;;;;;;;7.18;3.92;;;;;;;24.32;50.93;101148.53;4969586;28;20125;-75
2021/07/02 11:04:35;;;;;;;8.48;3.42;;;;;;;24.94;48.03;101155.94;4970464;28;20031;-75
2021/07/02 11:07:03;;;;;;;12.40;4.93;;;;;;;24.69;47.13;101155.50;4969318;28;20038;-75
2021/07/02 11:09:44;;;;;;;10.02;4.00;;;;;;;24.58;48.50;101151.78;4970341;28;20111;-76
2021/07/02 11:12:11;;;;;;;7.80;3.88;;;;;;;25.28;47.17;101154.03;4969554;28;20122;-75
2021/07/02 11:15:08;;;;;;;8.77;3.72;;;;;;;26.03;46.36;101153.66;4970390;28;20455;-75
2021/07/02 11:17:43;;;;;;;8.63;4.32;;;;;;;25.79;47.17;101144.88;4969156;28;20043;-74
2021/07/02 11:20:12;;;;;;;9.60;4.25;;;;;;;25.46;43.40;101142.00;4953199;28;20408;-74
2021/07/02 11:22:52;;;;;;;9.45;3.95;;;;;;;25.96;45.65;101147.56;4969089;28;20511;-74